Time;durP1;ratioP1;P1;durP2;ratioP2;P2;SDS_P1;SDS_P2;PMS_P1;PMS_P2;Temp;Humidity;BMP_temperature;BMP_pressure;BME280_temperature;BME280_humidity;BME280_pressure;Samples;Min_cycle;Max_cycle;Signal;HPM_P1;HPM_P2
2023/09/01 00:01:43;;;;;;;8.27;4.13;;;;;;;15.66;100.00;101042.88;5256285;28;20520;-77
2023/09/01 00:04:14;;;;;;;11.50;4.37;;;;;;;15.54;100.00;101004.25;5238810;28;20021;-77
2023/09/01 00:06:46;;;;;;;9.67;4.10;;;;;;;15.75;100.00;101022.00;5256790;28;20793;-77
2023/09/01 00:09:17;;;;;;;8.17;3.87;;;;;;;15.91;100.00;101064.72;5256741;28;20076;-78
2023/09/01 00:11:48;;;;;;;8.97;4.93;;;;;;;15.53;100.00;101005.22;5256282;28;20029;-77
2023/09/01 00:14:20;;;;;;;13.87;4.80;;;;;;;15.58;100.00;101006.56;5256367;28;20115;-77
2023/09/01 00:16:52;;;;;;;9.53;4.00;;;;;;;15.78;100.00;101016.50;5256699;28;20028;-78
2023/09/01 00:19:24;;;;;;;9.43;4.23;;;;;;;15.71;100.00;101016.13;5238598;28;20104;-78
2023/09/01 00:21:55;;;;;;;10.27;4.40;;;;;;;16.07;100.00;101059.09;5257108;28;20476;-77
2023/09/01 00:24:26;;;;;;;11.50;4.77;;;;;;;15.66;100.00;101013.84;5257712;28;20646;-77
2023/09/01 00:26:59;;;;;;;8.73;4.27;;;;;;;15.54;100.00;101020.94;5242205;28;20040;-77
2023/09/01 00:29:34;;;;;;;11.00;4.20;;;;;;;15.50;100.00;101011.56;5259297;28;20029;-77
2023/09/01 00:32:06;;;;;;;9.97;4.03;;;;;;;15.81;100.00;101047.94;5245982;28;20048;-76
2023/09/01 00:34:37;;;;;;;11.00;4.33;;;;;;;15.84;100.00;101011.56;5271100;28;20021;-78
2023/09/01 00:37:08;;;;;;;11.97;4.30;;;;;;;15.73;100.00;101011.56;5272741;28;20029;-77
2023/09/01 00:39:40;;;;;;;9.47;4.90;;;;;;;16.03;100.00;101048.88;5269927;28;20020;-77
2023/09/01 00:42:11;;;;;;;11.27;4.07;;;;;;;15.98;100.00;101033.38;5272446;28;20025;-76
2023/09/01 00:44:42;;;;;;;12.13;4.80;;;;;;;15.54;100.00;101001.59;5265610;28;20384;-77
2023/09/01 00:47:14;;;;;;;14.43;3.97;;;;;;;15.71;100.00;101022.25;5237914;28;20071;-77
2023/09/01 00:49:46;;;;;;;9.00;4.03;;;;;;;15.75;100.00;101038.69;5254404;28;20059;-77
2023/09/01 00:52:17;;;;;;;13.47;5.10;;;;;;;15.54;100.00;100993.69;5255351;28;20071;-77
2023/09/01 00:54:49;;;;;;;8.03;4.73;;;;;;;15.58;100.00;101000.41;5254971;28;20032;-76
2023/09/01 00:57:20;;;;;;;9.43;4.60;;;;;;;15.63;100.00;100981.56;5255501;28;20029;-76
2023/09/01 00:59:52;;;;;;;9.20;4.23;;;;;;;15.60;100.00;100999.31;5254892;28;20017;-77
2023/09/01 01:02:25;;;;;;;9.43;3.83;;;;;;;15.69;100.00;100970.53;5255291;28;20645;-76
2023/09/01 01:04:56;;;;;;;9.80;4.10;;;;;;;15.64;100.00;100981.44;5236219;28;20025;-76
2023/09/01 01:07:41;;;;;;;8.90;3.83;;;;;;;16.03;100.00;101003.97;5220546;28;20035;-76
2023/09/01 01:10:28;;;;;;;12.03;4.60;;;;;;;15.86;100.00;100992.94;5254709;28;20076;-77
2023/09/01 01:13:06;;;;;;;10.83;5.03;;;;;;;15.71;100.00;100990.56;5236688;28;20476;-76
2023/09/01 01:15:39;;;;;;;13.03;4.87;;;;;;;16.02;100.00;101049.84;5240366;28;20032;-76
2023/09/01 01:18:13;;;;;;;11.35;4.35;;;;;;;15.58;100.00;101016.25;5254271;28;20396;-76
2023/09/01 01:20:52;;;;;;;10.68;4.35;;;;;;;16.02;100.00;101040.13;5236386;28;20033;-77
2023/09/01 01:23:24;;;;;;;9.97;3.80;;;;;;;15.46;100.00;100997.78;5240315;28;20039;-77
2023/09/01 01:25:55;;;;;;;10.57;5.47;;;;;;;15.96;100.00;101030.88;5236144;28;20476;-77
2023/09/01 01:28:27;;;;;;;15.03;4.63;;;;;;;15.56;100.00;101010.25;5244351;28;20082;-77
2023/09/01 01:30:58;;;;;;;9.23;4.20;;;;;;;15.52;100.00;100996.47;5237038;28;20040;-77
2023/09/01 01:33:38;;;;;;;9.57;4.60;;;;;;;15.69;100.00;101010.97;5235509;28;20087;-77
2023/09/01 01:36:34;;;;;;;7.73;3.77;;;;;;;16.06;100.00;101041.56;5236860;28;20454;-77
2023/09/01 01:39:12;;;;;;;9.33;4.40;;;;;;;15.80;100.00;101033.03;5236011;28;20076;-77
2023/09/01 01:41:53;;;;;;;8.03;4.20;;;;;;;15.59;100.00;100996.81;5254596;28;20094;-77
2023/09/01 01:44:28;;;;;;;9.30;4.23;;;;;;;15.57;100.00;100998.72;5249394;28;20040;-77
2023/09/01 01:47:01;;;;;;;9.53;4.30;;;;;;;15.34;100.00;100990.84;5237070;28;20032;-76
2023/09/01 01:49:33;;;;;;;12.47;5.50;;;;;;;15.71;100.00;101043.38;5253532;28;20421;-76
2023/09/01 01:52:05;;;;;;;14.10;4.90;;;;;;;15.56;100.00;101032.22;5254003;28;20043;-76
2023/09/01 01:54:36;;;;;;;11.40;4.13;;;;;;;15.54;100.00;101051.75;5253848;28;20103;-76
2023/09/01 01:57:10;;;;;;;9.10;4.00;;;;;;;15.57;100.00;101022.47;5229516;28;20064;-76
2023/09/01 01:59:41;;;;;;;12.80;4.70;;;;;;;15.43;100.00;101005.94;5247180;28;20044;-76
2023/09/01 02:02:13;;;;;;;12.10;4.40;;;;;;;15.65;100.00;101049.13;5252072;28;20029;-76
2023/09/01 02:04:44;;;;;;;10.43;4.93;;;;;;;15.70;100.00;101025.00;5253370;28;20036;-76
2023/09/01 02:07:15;;;;;;;8.33;3.97;;;;;;;15.27;100.00;100990.47;5253467;28;20515;-76
2023/09/01 02:09:47;;;;;;;11.10;4.97;;;;;;;15.31;100.00;100991.91;5253531;28;20065;-76
2023/09/01 02:12:18;;;;;;;12.00;3.97;;;;;;;15.24;100.00;100982.78;5254142;28;20752;-76
2023/09/01 02:14:50;;;;;;;8.63;4.67;;;;;;;15.72;100.00;101028.38;5254253;28;20508;-76
2023/09/01 02:17:22;;;;;;;7.37;4.27;;;;;;;15.65;100.00;101011.34;5235611;28;20032;-76
2023/09/01 02:19:53;;;;;;;14.13;4.00;;;;;;;15.38;100.00;100994.91;5252754;28;20063;-76
2023/09/01 02:22:24;;;;;;;9.03;4.07;;;;;;;15.46;100.00;100987.22;5253742;28;20029;-76
2023/09/01 02:24:56;;;;;;;8.20;4.23;;;;;;;15.59;100.00;100994.16;5253320;28;20037;-76
2023/09/01 02:27:28;;;;;;;9.30;3.97;;;;;;;15.60;100.00;100998.50;5235311;28;20087;-76
2023/09/01 02:29:59;;;;;;;9.47;3.50;;;;;;;15.58;100.00;101005.69;5236165;28;20037;-76
2023/09/01 02:32:31;;;;;;;10.20;4.80;;;;;;;15.66;100.00;101008.56;5234365;28;20031;-76
2023/09/01 02:35:05;;;;;;;8.60;4.13;;;;;;;15.57;100.00;101018.06;5252204;28;20388;-76
2023/09/01 02:37:37;;;;;;;11.27;4.77;;;;;;;15.56;100.00;101007.63;5253391;28;20086;-76
2023/09/01 02:40:12;;;;;;;7.27;3.97;;;;;;;15.57;100.00;101018.06;5253320;28;20032;-76
2023/09/01 02:42:44;;;;;;;9.40;4.63;;;;;;;15.66;100.00;100997.16;5253586;28;20448;-76
2023/09/01 02:45:15;;;;;;;10.63;5.03;;;;;;;15.44;100.00;100970.69;5253003;28;20032;-76
2023/09/01 02:47:46;;;;;;;10.33;3.87;;;;;;;15.28;100.00;100978.97;5253466;28;20032;-76
2023/09/01 02:50:18;;;;;;;9.80;4.70;;;;;;;15.49;100.00;101007.25;5234204;28;20104;-76
2023/09/01 02:52:49;;;;;;;11.63;4.90;;;;;;;15.46;100.00;100979.28;5253239;28;20637;-76
2023/09/01 02:55:21;;;;;;;9.13;4.40;;;;;;;15.38;100.00;100978.25;5253717;28;20424;-77
2023/09/01 02:57:52;;;;;;;8.23;4.53;;;;;;;15.17;100.00;100963.97;5255681;28;20368;-76
2023/09/01 03:00:23;;;;;;;10.97;5.20;;;;;;;15.47;100.00;100983.63;5239195;28;20021;-76
2023/09/01 03:02:56;;;;;;;12.80;5.60;;;;;;;15.25;100.00;100976.56;5256227;28;20112;-77
2023/09/01 03:05:28;;;;;;;11.07;5.37;;;;;;;15.62;100.00;101023.00;5238831;28;20079;-76
2023/09/01 03:07:59;;;;;;;10.97;5.20;;;;;;;15.38;100.00;100983.53;5257082;28;20576;-76
2023/09/01 03:10:31;;;;;;;8.47;4.77;;;;;;;15.39;100.00;100970.22;5257558;28;20048;-77
2023/09/01 03:13:03;;;;;;;9.90;5.30;;;;;;;15.47;100.00;100967.78;5256823;28;20032;-77
2023/09/01 03:15:34;;;;;;;9.00;4.60;;;;;;;15.45;100.00;101001.38;5256491;28;20033;-77
2023/09/01 03:18:06;;;;;;;12.27;5.60;;;;;;;15.62;100.00;101022.13;5238317;28;20021;-77
2023/09/01 03:20:38;;;;;;;9.97;4.97;;;;;;;15.41;100.00;100965.63;5257155;28;20086;-77
2023/09/01 03:23:10;;;;;;;10.77;4.83;;;;;;;15.53;100.00;100998.16;5256497;28;20021;-77
2023/09/01 03:25:41;;;;;;;10.60;5.13;;;;;;;15.62;100.00;101012.44;5257025;28;20037;-77
2023/09/01 03:28:12;;;;;;;11.33;5.70;;;;;;;15.78;100.00;101008.56;5256478;28;20028;-76
2023/09/01 03:30:44;;;;;;;10.50;5.57;;;;;;;15.54;100.00;100975.22;5256736;28;20028;-76
2023/09/01 03:33:15;;;;;;;13.63;5.57;;;;;;;15.58;100.00;101008.34;5255736;28;20021;-76
2023/09/01 03:35:47;;;;;;;12.67;5.40;;;;;;;15.40;100.00;100971.03;5256789;28;20431;-76
2023/09/01 03:38:18;;;;;;;11.63;6.60;;;;;;;15.60;100.00;101009.88;5255526;28;20029;-76
2023/09/01 03:40:50;;;;;;;9.13;5.07;;;;;;;15.37;100.00;100977.41;5248486;28;20270;-76
2023/09/01 03:43:21;;;;;;;11.03;5.83;;;;;;;15.66;100.00;101000.66;5244555;28;20036;-76
2023/09/01 03:45:52;;;;;;;12.63;6.03;;;;;;;15.33;100.00;100939.84;5256565;28;20051;-77
2023/09/01 03:48:27;;;;;;;10.50;5.60;;;;;;;15.58;100.00;100981.94;5255882;28;20033;-78
2023/09/01 03:51:09;;;;;;;15.20;6.37;;;;;;;15.50;100.00;100950.88;5256913;28;20024;-77
2023/09/01 03:53:41;;;;;;;10.43;5.70;;;;;;;15.35;100.00;100959.06;5256743;28;20234;-77
2023/09/01 03:56:15;;;;;;;9.40;6.00;;;;;;;15.55;100.00;101004.13;5256753;28;20576;-77
2023/09/01 03:58:46;;;;;;;10.85;5.88;;;;;;;15.52;100.00;100992.97;5238611;28;20032;-77
2023/09/01 04:01:18;;;;;;;12.70;6.13;;;;;;;15.27;100.00;100960.59;5247846;28;20034;-77
2023/09/01 04:03:49;;;;;;;10.87;5.80;;;;;;;15.59;100.00;100975.69;5235404;28;20496;-77
2023/09/01 04:06:20;;;;;;;10.57;5.57;;;;;;;15.54;100.00;100959.38;5254558;28;20040;-77
2023/09/01 04:08:52;;;;;;;12.37;6.47;;;;;;;15.35;100.00;100937.94;5255516;28;20098;-77
2023/09/01 04:11:23;;;;;;;10.57;5.83;;;;;;;15.61;100.00;100971.13;5256223;28;20021;-77
2023/09/01 04:13:57;;;;;;;12.80;6.13;;;;;;;15.67;100.00;100959.25;5256366;28;20029;-77
2023/09/01 04:16:29;;;;;;;11.82;6.05;;;;;;;15.82;100.00;100991.50;5255721;28;20465;-77
2023/09/01 04:19:00;;;;;;;11.43;5.63;;;;;;;15.59;100.00;100965.13;5254795;28;20043;-77
2023/09/01 04:21:32;;;;;;;9.17;5.60;;;;;;;15.27;100.00;100923.66;5255945;28;20525;-77
2023/09/01 04:24:04;;;;;;;12.80;6.00;;;;;;;15.51;100.00;100959.63;5237690;28;20414;-76
2023/09/01 04:26:35;;;;;;;12.40;4.97;;;;;;;15.59;100.00;100958.06;5255394;28;20062;-77
2023/09/01 04:29:07;;;;;;;10.20;5.43;;;;;;;15.83;100.00;100994.03;5255529;28;20017;-78
2023/09/01 04:31:38;;;;;;;10.27;5.40;;;;;;;15.71;100.00;100956.22;5255773;28;20100;-77
2023/09/01 04:34:10;;;;;;;9.70;5.43;;;;;;;15.54;100.00;100946.19;5255087;28;20048;-77
2023/09/01 04:36:41;;;;;;;10.03;5.67;;;;;;;15.66;100.00;100971.59;5256025;28;20384;-78
2023/09/01 04:39:14;;;;;;;9.53;5.73;;;;;;;15.73;100.00;100983.38;5251342;28;20029;-78
2023/09/01 04:41:46;;;;;;;10.10;5.20;;;;;;;15.60;100.00;100954.44;5236285;28;20057;-78
2023/09/01 04:44:17;;;;;;;8.73;5.60;;;;;;;15.60;100.00;100970.28;5237844;28;20186;-78
2023/09/01 04:46:49;;;;;;;9.33;5.63;;;;;;;15.64;100.00;100989.38;5236960;28;20648;-79
2023/09/01 04:49:20;;;;;;;9.47;5.77;;;;;;;15.58;100.00;100981.94;5236855;28;20044;-76
2023/09/01 04:51:51;;;;;;;11.03;6.57;;;;;;;15.47;100.00;100978.34;5255214;28;20033;-75
2023/09/01 04:54:23;;;;;;;10.47;5.37;;;;;;;15.66;100.00;100966.31;5254272;28;20060;-76
2023/09/01 04:56:55;;;;;;;8.23;5.63;;;;;;;15.71;100.00;100995.00;5255588;28;20523;-76
2023/09/01 04:59:26;;;;;;;13.17;5.70;;;;;;;15.68;100.00;101005.81;5254476;28;20035;-76
2023/09/01 05:01:59;;;;;;;10.07;5.87;;;;;;;15.70;100.00;100996.81;5252689;28;20404;-75
2023/09/01 05:04:31;;;;;;;9.10;5.77;;;;;;;15.65;100.00;100991.06;5234823;28;20457;-75
2023/09/01 05:07:02;;;;;;;8.47;5.07;;;;;;;15.69;100.00;100981.91;5252862;28;20032;-74
2023/09/01 05:09:34;;;;;;;9.20;5.27;;;;;;;15.76;100.00;100976.16;5249705;28;20122;-74
2023/09/01 05:12:05;;;;;;;9.00;5.27;;;;;;;15.86;100.00;100990.31;5250301;28;20021;-75
2023/09/01 05:14:37;;;;;;;10.53;5.17;;;;;;;15.70;100.00;100978.34;5254937;28;20029;-74
2023/09/01 05:17:08;;;;;;;11.47;5.80;;;;;;;15.76;100.00;100992.81;5243862;28;20064;-74
2023/09/01 05:19:39;;;;;;;12.47;5.70;;;;;;;15.80;100.00;100983.72;5252578;28;20029;-74
2023/09/01 05:22:10;;;;;;;11.90;6.37;;;;;;;15.79;100.00;100989.97;5248196;28;20065;-74
2023/09/01 05:24:42;;;;;;;8.70;5.73;;;;;;;15.67;100.00;100975.09;5253756;28;20033;-74
2023/09/01 05:27:13;;;;;;;11.83;5.60;;;;;;;15.84;100.00;100989.59;5253757;28;20033;-73
2023/09/01 05:29:48;;;;;;;8.53;5.10;;;;;;;16.04;100.00;101003.84;5254481;28;20032;-75
2023/09/01 05:32:21;;;;;;;11.60;6.27;;;;;;;15.70;100.00;100983.63;5253824;28;20033;-75
2023/09/01 05:34:53;;;;;;;11.97;6.50;;;;;;;15.79;100.00;100995.25;5253724;28;20029;-74
2023/09/01 05:37:24;;;;;;;12.37;7.23;;;;;;;15.88;100.00;101000.75;5253422;28;20043;-75
2023/09/01 05:39:56;;;;;;;10.50;5.40;;;;;;;15.85;100.00;101007.09;5253369;28;20098;-75
2023/09/01 05:42:27;;;;;;;8.97;5.90;;;;;;;15.96;100.00;101003.59;5253663;28;20463;-75
2023/09/01 05:44:58;;;;;;;13.57;6.03;;;;;;;15.96;100.00;100999.16;5243668;28;20544;-75
2023/09/01 05:47:30;;;;;;;13.17;6.70;;;;;;;15.87;100.00;100989.34;5237434;28;20491;-75
2023/09/01 05:50:03;;;;;;;10.17;6.80;;;;;;;15.91;100.00;101003.97;5241342;28;20083;-75
2023/09/01 05:52:35;;;;;;;8.65;6.35;;;;;;;15.84;100.00;100998.34;5252260;28;20017;-75
2023/09/01 05:55:07;;;;;;;9.23;5.70;;;;;;;15.88;100.00;100993.66;5230180;28;20111;-75
2023/09/01 05:57:38;;;;;;;11.67;6.27;;;;;;;15.83;100.00;100991.38;5253841;28;20412;-75
2023/09/01 06:00:10;;;;;;;12.40;7.07;;;;;;;15.95;100.00;100989.53;5252455;28;20052;-74
2023/09/01 06:02:41;;;;;;;10.20;6.80;;;;;;;15.95;100.00;100968.41;5236785;28;20029;-74
2023/09/01 06:05:12;;;;;;;12.63;7.33;;;;;;;16.06;100.00;100986.06;5252260;28;20036;-74
2023/09/01 06:07:44;;;;;;;10.60;6.93;;;;;;;16.07;100.00;100984.28;5248247;28;20048;-74
2023/09/01 06:10:15;;;;;;;13.07;7.17;;;;;;;16.14;100.00;100996.03;5236562;28;21128;-74
2023/09/01 06:12:46;;;;;;;8.37;6.30;;;;;;;16.09;100.00;101000.84;5237239;28;20064;-74
2023/09/01 06:15:18;;;;;;;9.63;6.70;;;;;;;16.00;100.00;100994.50;5230535;28;20037;-74
2023/09/01 06:17:49;;;;;;;11.07;6.90;;;;;;;16.08;100.00;100985.94;5246072;28;20577;-74
2023/09/01 06:20:20;;;;;;;20.30;6.80;;;;;;;16.16;100.00;100998.53;5232625;28;20033;-74
2023/09/01 06:22:54;;;;;;;11.67;6.97;;;;;;;16.05;100.00;100979.13;5241248;28;20477;-74
2023/09/01 06:25:25;;;;;;;11.48;6.97;;;;;;;16.05;100.00;101002.06;5242216;28;20033;-74
2023/09/01 06:27:57;;;;;;;11.87;7.47;;;;;;;16.01;100.00;100995.31;5248292;28;20459;-74
2023/09/01 06:30:28;;;;;;;14.30;7.80;;;;;;;16.10;100.00;101010.44;5248623;28;20096;-74
2023/09/01 06:33:00;;;;;;;11.20;7.90;;;;;;;16.14;100.00;101011.88;5227226;28;20014;-74
2023/09/01 06:35:31;;;;;;;12.37;8.77;;;;;;;16.12;100.00;101008.53;5231508;28;20052;-74
2023/09/01 06:38:05;;;;;;;13.80;8.23;;;;;;;16.25;100.00;101018.09;5232228;28;20024;-75
2023/09/01 06:40:36;;;;;;;14.18;8.38;;;;;;;16.24;100.00;101013.75;5252460;28;20021;-74
2023/09/01 06:43:08;;;;;;;12.73;7.53;;;;;;;16.28;100.00;101016.03;5250832;28;20024;-74
2023/09/01 06:45:39;;;;;;;14.30;8.10;;;;;;;16.18;100.00;101008.00;5231451;28;20021;-73
2023/09/01 06:48:10;;;;;;;12.70;8.20;;;;;;;16.27;100.00;101010.84;5243471;28;20396;-74
2023/09/01 06:50:42;;;;;;;12.90;8.47;;;;;;;16.01;100.00;100968.91;5251401;28;20017;-74
2023/09/01 06:53:13;;;;;;;15.33;9.30;;;;;;;16.36;100.00;101018.03;5251187;28;20017;-73
2023/09/01 06:55:47;;;;;;;12.37;8.70;;;;;;;16.35;100.00;101012.88;5250831;28;20028;-73
2023/09/01 06:58:19;;;;;;;;;;;;;;;16.75;100.00;101017.53;5251895;28;20100;-73
2023/09/01 07:00:53;;;;;;;13.23;9.00;;;;;;;16.22;100.00;101016.53;5233657;28;20011;-73
2023/09/01 07:03:24;;;;;;;15.27;10.45;;;;;;;16.30;100.00;101002.72;5249757;28;20028;-73
2023/09/01 07:05:56;;;;;;;10.30;8.97;;;;;;;16.34;100.00;100998.81;5251412;28;20469;-73
2023/09/01 07:08:28;;;;;;;13.03;8.83;;;;;;;16.30;100.00;101000.06;5250538;28;20052;-73
2023/09/01 07:11:01;;;;;;;14.07;9.40;;;;;;;16.23;100.00;100986.50;5250646;28;20511;-73
2023/09/01 07:13:32;;;;;;;13.67;9.97;;;;;;;16.37;100.00;100980.06;5233050;28;20551;-73
2023/09/01 07:16:04;;;;;;;12.73;9.67;;;;;;;16.38;100.00;100980.91;5250364;28;20029;-73
2023/09/01 07:18:36;;;;;;;12.83;9.83;;;;;;;16.49;100.00;100995.91;5232304;28;20032;-73
2023/09/01 07:21:07;;;;;;;17.70;11.17;;;;;;;16.42;100.00;100977.88;5250173;28;20037;-73
2023/09/01 07:23:39;;;;;;;14.03;10.47;;;;;;;16.35;100.00;100982.03;5233279;28;20374;-73
2023/09/01 07:26:10;;;;;;;12.47;10.60;;;;;;;16.35;100.00;100992.59;5250448;28;20064;-73
2023/09/01 07:28:41;;;;;;;15.37;11.00;;;;;;;16.45;100.00;100997.94;5258082;28;20020;-73
2023/09/01 07:31:13;;;;;;;11.70;9.73;;;;;;;16.48;100.00;100996.88;5257115;28;20112;-73
2023/09/01 07:33:44;;;;;;;15.80;10.20;;;;;;;16.33;100.00;100984.78;5250206;28;20035;-73
2023/09/01 07:36:16;;;;;;;14.93;9.57;;;;;;;16.41;100.00;100989.44;5232684;28;20044;-73
2023/09/01 07:38:47;;;;;;;16.53;10.10;;;;;;;16.40;100.00;100971.91;5250723;28;20036;-73
2023/09/01 07:41:19;;;;;;;15.83;11.13;;;;;;;16.36;100.00;100972.28;5249944;28;20029;-73
2023/09/01 07:43:50;;;;;;;15.87;10.10;;;;;;;16.53;100.00;100989.41;5252504;28;20029;-73
2023/09/01 07:46:21;;;;;;;14.63;10.90;;;;;;;16.37;100.00;100989.81;5254634;28;20154;-73
2023/09/01 07:48:53;;;;;;;13.70;10.10;;;;;;;16.45;100.00;100990.88;5253126;28;20698;-73
2023/09/01 07:51:24;;;;;;;12.37;9.83;;;;;;;16.50;100.00;100985.19;5254217;28;20100;-74
2023/09/01 07:53:55;;;;;;;11.77;9.77;;;;;;;16.56;100.00;100989.13;5254127;28;20039;-74
2023/09/01 07:56:27;;;;;;;16.57;10.43;;;;;;;16.32;100.00;100990.19;5254053;28;20429;-73
2023/09/01 07:58:58;;;;;;;11.23;9.97;;;;;;;16.37;100.00;100993.28;5268691;28;20039;-73
2023/09/01 08:01:30;;;;;;;14.07;9.33;;;;;;;16.32;100.00;100992.81;5235715;28;20064;-73
2023/09/01 08:04:02;;;;;;;12.10;9.87;;;;;;;16.44;100.00;101002.38;5252678;28;20048;-73
2023/09/01 08:06:33;;;;;;;12.47;10.57;;;;;;;16.34;100.00;101001.47;5254128;28;20071;-73
2023/09/01 08:09:05;;;;;;;11.13;9.97;;;;;;;16.36;100.00;100994.25;5256583;28;20110;-74
2023/09/01 08:11:36;;;;;;;12.03;9.57;;;;;;;16.27;100.00;101006.44;5240145;28;20515;-73
2023/09/01 08:14:07;;;;;;;10.97;9.87;;;;;;;16.57;100.00;101014.59;5253897;28;20017;-73
2023/09/01 08:16:39;;;;;;;10.50;9.43;;;;;;;16.52;100.00;101014.13;5253335;28;20440;-73
2023/09/01 08:19:10;;;;;;;12.07;10.03;;;;;;;16.59;100.00;101011.81;5252844;28;20086;-73
2023/09/01 08:21:41;;;;;;;12.33;9.13;;;;;;;16.54;100.00;101018.34;5252961;28;20107;-73
2023/09/01 08:24:13;;;;;;;11.80;9.70;;;;;;;16.53;100.00;101010.53;5253806;28;20068;-73
2023/09/01 08:26:44;;;;;;;10.27;8.97;;;;;;;16.61;100.00;101023.97;5253813;28;20071;-74
2023/09/01 08:29:15;;;;;;;10.03;9.03;;;;;;;16.52;100.00;101025.56;5253203;28;20060;-74
2023/09/01 08:31:47;;;;;;;10.40;9.40;;;;;;;16.54;100.00;101012.22;5235200;28;20064;-74
2023/09/01 08:34:19;;;;;;;11.93;9.60;;;;;;;16.47;100.00;101016.31;5252664;28;20036;-74
2023/09/01 08:36:50;;;;;;;9.80;8.67;;;;;;;16.50;100.00;101021.34;5235163;28;20041;-73
2023/09/01 08:39:21;;;;;;;9.60;8.63;;;;;;;16.52;100.00;101024.72;5253312;28;20396;-73
2023/09/01 08:41:53;;;;;;;10.20;8.97;;;;;;;16.60;100.00;101032.84;5252467;28;20053;-74
2023/09/01 08:44:27;;;;;;;10.13;9.23;;;;;;;16.62;100.00;101035.34;5235549;28;20025;-74
2023/09/01 08:46:59;;;;;;;13.18;9.40;;;;;;;16.64;100.00;101038.72;5252328;28;20025;-74
2023/09/01 08:49:30;;;;;;;9.97;9.07;;;;;;;16.54;100.00;101043.94;5252497;28;20550;-74
2023/09/01 08:52:02;;;;;;;9.73;8.83;;;;;;;16.67;100.00;101049.88;5252791;28;20013;-73
2023/09/01 08:54:36;;;;;;;9.13;8.07;;;;;;;16.73;100.00;101043.25;5252078;28;20025;-73
2023/09/01 08:57:07;;;;;;;10.40;8.15;;;;;;;16.79;100.00;101047.19;5253364;28;20029;-74
2023/09/01 08:59:39;;;;;;;10.30;9.30;;;;;;;16.76;100.00;101044.78;5253376;28;20162;-73
2023/09/01 09:02:10;;;;;;;11.60;9.33;;;;;;;16.76;100.00;101044.78;5250730;28;20040;-73
2023/09/01 09:04:42;;;;;;;10.03;8.93;;;;;;;16.78;100.00;101050.78;5235234;28;20020;-73
2023/09/01 09:07:18;;;;;;;10.23;9.23;;;;;;;16.76;100.00;101052.72;5252800;28;20060;-74
2023/09/01 09:09:57;;;;;;;10.50;9.50;;;;;;;16.79;100.00;101048.00;5252759;28;20427;-73
2023/09/01 09:12:39;;;;;;;11.60;9.83;;;;;;;16.76;100.00;101044.78;5252968;28;20075;-73
2023/09/01 09:15:17;;;;;;;11.83;10.63;;;;;;;16.80;100.00;101054.16;5240214;28;20029;-73
2023/09/01 09:17:48;;;;;;;11.00;9.53;;;;;;;16.74;100.00;101057.31;5251604;28;20025;-73
2023/09/01 09:20:22;;;;;;;10.50;9.10;;;;;;;16.69;100.00;101057.69;5252602;28;20040;-73
2023/09/01 09:22:59;;;;;;;9.05;7.85;;;;;;;16.72;100.00;101054.78;5252660;28;20036;-73
2023/09/01 09:25:32;;;;;;;9.97;8.50;;;;;;;16.62;100.00;101053.88;5251764;28;20082;-73
2023/09/01 09:28:12;;;;;;;9.40;8.50;;;;;;;16.78;100.00;101054.28;5234618;28;20526;-73
2023/09/01 09:30:51;;;;;;;8.53;7.57;;;;;;;16.76;100.00;101063.31;5252562;28;20021;-73
2023/09/01 09:33:29;;;;;;;7.87;7.17;;;;;;;16.77;100.00;101051.78;5251871;28;20021;-73
2023/09/01 09:36:03;;;;;;;8.60;7.70;;;;;;;16.59;100.00;101046.19;5251306;28;20057;-73
2023/09/01 09:38:42;;;;;;;11.10;9.20;;;;;;;16.87;100.00;101062.41;5252176;28;20496;-73
2023/09/01 09:41:14;;;;;;;10.23;7.83;;;;;;;16.66;100.00;101053.50;5252486;28;20033;-73
2023/09/01 09:43:48;;;;;;;10.93;7.57;;;;;;;16.89;100.00;101063.97;5234217;28;20039;-73
2023/09/01 09:46:19;;;;;;;7.57;6.47;;;;;;;16.80;100.00;101065.59;5252190;28;20032;-73
2023/09/01 09:48:51;;;;;;;9.80;6.23;;;;;;;16.80;100.00;101051.50;5233480;28;20024;-73
2023/09/01 09:51:23;;;;;;;6.63;5.67;;;;;;;16.79;100.00;101063.88;5252441;28;20392;-73
2023/09/01 09:53:57;;;;;;;6.17;5.57;;;;;;;16.89;100.00;101066.63;5252065;28;20047;-73
2023/09/01 09:56:35;;;;;;;7.00;5.47;;;;;;;16.99;100.00;101068.47;5251937;28;20021;-73
2023/09/01 09:59:12;;;;;;;5.93;5.33;;;;;;;16.90;100.00;101049.78;5251922;28;20104;-73
2023/09/01 10:01:45;;;;;;;6.10;5.07;;;;;;;16.89;100.00;101053.41;5250673;28;20067;-73
2023/09/01 10:04:17;;;;;;;5.53;5.03;;;;;;;16.95;100.00;101048.56;5251919;28;20020;-73
2023/09/01 10:06:49;;;;;;;5.40;4.90;;;;;;;16.91;100.00;101056.72;5251428;28;20028;-73
2023/09/01 10:09:21;;;;;;;5.03;4.57;;;;;;;16.86;100.00;101027.19;5251893;28;20060;-73
2023/09/01 10:11:53;;;;;;;6.77;5.57;;;;;;;17.04;100.00;101050.41;5252428;28;20028;-73
2023/09/01 10:14:29;;;;;;;4.70;4.30;;;;;;;17.01;100.00;101046.22;5251348;28;20036;-73
2023/09/01 10:17:00;;;;;;;5.40;4.43;;;;;;;17.00;100.00;101049.81;5250675;28;20534;-72
2023/09/01 10:19:34;;;;;;;6.17;5.03;;;;;;;17.03;100.00;101038.16;5251069;28;20237;-73
2023/09/01 10:22:07;;;;;;;5.20;4.78;;;;;;;17.08;100.00;101054.47;5251651;28;20395;-72
2023/09/01 10:24:38;;;;;;;4.77;4.37;;;;;;;16.99;100.00;101053.44;5251857;28;20170;-73
2023/09/01 10:27:10;;;;;;;4.70;4.30;;;;;;;17.10;100.00;101057.03;5250980;28;20043;-73
2023/09/01 10:29:41;;;;;;;5.70;4.63;;;;;;;17.15;100.00;101062.78;5233386;28;20025;-73
2023/09/01 10:32:17;;;;;;;6.17;5.00;;;;;;;17.26;100.00;101056.56;5249966;28;20021;-73
2023/09/01 10:34:52;;;;;;;8.60;4.80;;;;;;;17.07;100.00;101042.22;5251927;28;20538;-72
2023/09/01 10:37:26;;;;;;;6.30;4.50;;;;;;;17.19;100.00;101048.31;5251320;28;20467;-73
2023/09/01 10:39:58;;;;;;;7.30;5.57;;;;;;;17.18;100.00;101036.03;5251114;28;20021;-73
2023/09/01 10:42:39;;;;;;;5.60;4.73;;;;;;;17.42;100.00;101064.00;5233435;28;20024;-73
2023/09/01 10:45:12;;;;;;;4.63;4.23;;;;;;;17.30;100.00;101055.31;5244984;28;20055;-73
2023/09/01 10:47:46;;;;;;;4.53;4.13;;;;;;;17.37;100.00;101061.78;5250307;28;20062;-73
2023/09/01 10:50:17;;;;;;;4.80;4.30;;;;;;;17.56;100.00;101083.19;5232650;28;20020;-73
2023/09/01 10:53:31;;;;;;;5.00;4.50;;;;;;;17.57;100.00;101040.69;5245986;28;20025;-73
2023/09/01 10:56:13;;;;;;;4.83;4.33;;;;;;;17.68;100.00;101054.81;5212956;28;20029;-73
2023/09/01 10:58:47;;;;;;;4.40;4.00;;;;;;;17.58;100.00;101050.31;5246135;28;20025;-73
2023/09/01 11:01:24;;;;;;;;;;;;;;;18.27;100.00;101089.44;5232532;28;20026;-73
2023/09/01 11:04:16;;;;;;;3.93;3.57;;;;;;;18.11;100.00;101085.47;5248304;28;19913;-73
2023/09/01 11:06:56;;;;;;;3.33;3.03;;;;;;;18.12;100.00;101091.59;5252151;28;20032;-74
2023/09/01 11:09:33;;;;;;;4.70;3.30;;;;;;;18.21;100.00;101089.97;5237836;28;20509;-74
2023/09/01 11:12:07;;;;;;;4.07;3.57;;;;;;;18.12;100.00;101071.25;5245499;28;20459;-74
2023/09/01 11:14:52;;;;;;;2.83;2.50;;;;;;;18.16;100.00;101068.34;5248114;28;20024;-73
2023/09/01 11:17:38;;;;;;;3.17;2.57;;;;;;;18.37;100.00;101071.75;5240938;28;20038;-74
2023/09/01 11:20:11;;;;;;;4.57;2.40;;;;;;;18.09;100.00;101070.66;5251220;28;20460;-74
2023/09/01 11:22:42;;;;;;;4.07;2.50;;;;;;;18.19;100.00;101076.84;5237347;28;20058;-73
2023/09/01 11:25:15;;;;;;;4.23;2.60;;;;;;;18.24;100.00;101058.72;5236895;28;20054;-74
2023/09/01 11:27:49;;;;;;;4.20;3.30;;;;;;;18.38;100.00;101076.06;5254689;28;20037;-73
2023/09/01 11:30:21;;;;;;;5.68;3.83;;;;;;;18.44;100.00;101079.13;5236195;28;20783;-73
2023/09/01 11:32:52;;;;;;;8.73;4.00;;;;;;;18.38;100.00;101069.91;5246364;28;20020;-73
2023/09/01 11:35:26;;;;;;;4.90;3.83;;;;;;;18.32;100.00;101060.72;5241204;28;20798;-73
2023/09/01 11:37:57;;;;;;;6.53;3.20;;;;;;;18.53;100.00;101066.84;5237388;28;20020;-73